메인 페이지
METAR-TAF:

METAR-TAF

공항 :

브리지포트, 코네티컷, 미국

위도: 41-09-30N, 경도: 073-07-44W, 고도: 3m

현재 날씨관측

예보는 45분 전, 15:52시(UTC)에 발표되었습니다.
9kt
온도 18°C
습도 52%
기압 1025 hPa
시정: 16.1km
고도 4200ft 상공 흐림

METAR: KBDR 181552Z 36009KT 10SM OVC042 18/08 A3026 RMK AO2 SLP247 T01830078

시각: 12:37 (16:37 UTC)

예보

예보는 1 시간 3분 전, 15:34시(UTC)에 발표되었습니다.
예보 대상 시간: 18일 16시부터 19일 12시까지 (UTC)
북동14kt, 순간 최대 풍속 20kt
시정: 10km
고도 3000ft 상공 구름 조금
고도 5000ft 상공 구름 보통
18일 2300시부터 (UTC)
북동11kt
시정: 10km
맑음
19일 0800시부터 (UTC)
북북동8kt
시정: 10km
맑음

TAF: KBDR 181534Z 1816/1912 05014G20KT P6SM FEW030 SCT050 FM182300 05011KT P6SM SKC FM190800 03008KT P6SM SKC

4,000개 이상의 공항 관측 자료 및 예보 (METAR 및 TAF 보고).

지도상에서 검색 가능한 기상관측소가 노란 점과 빨간 점으로 표시되어 있습니다.

기상관측소 명을 보려면 표시 위로 마우스를 이동하세요.

날씨 관측과 예보를 보려면 클릭하세요.

지도 변경 : 확대하려면 엑스 표시가 있는 녹색 버튼, 축소하려면 빼기 표시가 있는 녹색 버튼, 다음 페이지의 지도를 보려면 녹색 화살표를 클릭하세요.


METAR-TAF: